Time;durP1;ratioP1;P1;durP2;ratioP2;P2;SDS_P1;SDS_P2;PMS_P1;PMS_P2;Temp;Humidity;BMP_temperature;BMP_pressure;BME280_temperature;BME280_humidity;BME280_pressure;Samples;Min_cycle;Max_cycle;Signal;HPM_P1;HPM_P2
2022/01/25 00:08:23;;;;;;;5.22;4.72;;;3.40;99.90;;;;;;5016161;28;20461;-89
2022/01/25 00:26:41;;;;;;;17.50;6.45;;;3.20;99.90;;;;;;5016726;28;20084;-89
2022/01/25 00:29:12;;;;;;;8.77;5.38;;;3.20;99.90;;;;;;5032190;28;20057;-88
2022/01/25 00:31:41;;;;;;;6.57;5.30;;;3.10;99.90;;;;;;5015531;28;20050;-89
2022/01/25 00:34:09;;;;;;;6.30;5.65;;;3.20;99.90;;;;;;5014970;28;20057;-88
2022/01/25 00:36:36;;;;;;;5.80;5.20;;;3.20;99.90;;;;;;5016315;28;20173;-89
2022/01/25 00:39:04;;;;;;;8.60;6.10;;;3.20;99.90;;;;;;5031400;28;20145;-88
2022/01/25 00:41:32;;;;;;;5.53;5.03;;;3.10;99.90;;;;;;5016240;28;20858;-89
2022/01/25 00:44:00;;;;;;;7.43;5.43;;;3.10;99.90;;;;;;5015007;28;20065;-88
2022/01/25 00:46:28;;;;;;;6.40;5.80;;;3.20;99.90;;;;;;5015084;28;20125;-88
2022/01/25 00:49:00;;;;;;;6.95;6.30;;;3.30;99.90;;;;;;5014767;28;20077;-89
2022/01/25 00:54:10;;;;;;;7.20;5.95;;;3.30;99.90;;;;;;5016115;28;20076;-89
2022/01/25 00:56:46;;;;;;;6.05;5.45;;;3.20;99.90;;;;;;5031757;28;20554;-89
2022/01/25 00:59:22;;;;;;;6.13;5.43;;;3.20;99.90;;;;;;5014511;28;20093;-88
2022/01/25 01:01:52;;;;;;;7.43;5.55;;;3.20;99.90;;;;;;5015883;28;20469;-89
2022/01/25 01:04:19;;;;;;;12.85;6.97;;;3.10;99.90;;;;;;5014752;28;20130;-89
2022/01/25 01:06:47;;;;;;;6.65;6.05;;;3.20;99.90;;;;;;5031191;28;20060;-89
2022/01/25 01:09:17;;;;;;;7.20;6.03;;;3.20;99.90;;;;;;5015452;28;20053;-88
2022/01/25 01:11:55;;;;;;;6.38;5.78;;;3.20;99.90;;;;;;5014403;28;20152;-89
2022/01/25 01:14:49;;;;;;;12.40;6.85;;;3.20;99.90;;;;;;5014623;28;20068;-89
2022/01/25 01:31:11;;;;;;;7.00;6.28;;;3.10;99.90;;;;;;5015432;28;20132;-89
2022/01/25 01:39:33;;;;;;;7.80;6.10;;;3.10;99.90;;;;;;5014676;28;20046;-89
2022/01/25 01:47:49;;;;;;;11.98;6.63;;;3.00;99.90;;;;;;4992231;28;20129;-89
2022/01/25 01:50:28;;;;;;;8.77;6.47;;;3.10;99.90;;;;;;5013492;28;20137;-89
2022/01/25 01:52:56;;;;;;;7.43;6.68;;;3.10;99.90;;;;;;5013866;28;20137;-88
2022/01/25 01:55:25;;;;;;;6.43;5.85;;;3.10;99.90;;;;;;5013524;28;20065;-89
2022/01/25 01:57:53;;;;;;;8.90;6.72;;;3.20;99.90;;;;;;5013684;28;20057;-90
2022/01/25 02:00:23;;;;;;;7.35;5.75;;;3.10;99.90;;;;;;5013535;28;20494;-89
2022/01/25 02:02:50;;;;;;;7.47;5.95;;;3.10;99.90;;;;;;5013671;28;20054;-88
2022/01/25 02:05:17;;;;;;;8.60;6.78;;;3.10;99.90;;;;;;5013555;28;20049;-89
2022/01/25 02:07:44;;;;;;;8.07;6.82;;;3.00;99.90;;;;;;5014672;28;20132;-89
2022/01/25 02:10:11;;;;;;;8.40;6.15;;;3.10;99.90;;;;;;5013617;28;20136;-89
2022/01/25 02:12:38;;;;;;;9.50;6.70;;;3.10;99.90;;;;;;5013377;28;20258;-88
2022/01/25 02:15:05;;;;;;;6.88;6.15;;;3.10;99.90;;;;;;5013588;28;20129;-89
2022/01/25 02:23:18;;;;;;;12.93;5.85;;;3.00;99.90;;;;;;5014155;28;20092;-89
2022/01/25 02:25:46;;;;;;;21.05;6.57;;;3.10;99.90;;;;;;5013279;28;20053;-89
2022/01/25 02:28:14;;;;;;;6.15;5.55;;;3.10;99.90;;;;;;5014177;28;20050;-89
2022/01/25 02:30:42;;;;;;;13.27;6.05;;;3.10;99.90;;;;;;5013280;28;20077;-89
2022/01/25 02:33:09;;;;;;;12.65;7.18;;;3.00;99.90;;;;;;5012927;28;20054;-89
2022/01/25 02:35:36;;;;;;;20.48;7.07;;;2.90;99.90;;;;;;5013290;28;20050;-89
2022/01/25 02:38:03;;;;;;;7.05;5.80;;;3.00;99.90;;;;;;5013013;28;20049;-90
2022/01/25 02:40:30;;;;;;;6.75;6.05;;;2.90;99.90;;;;;;5014003;28;20141;-88
2022/01/25 02:42:57;;;;;;;9.27;6.40;;;2.90;99.90;;;;;;5012778;28;20252;-90
2022/01/25 02:45:31;;;;;;;8.07;6.22;;;2.90;99.90;;;;;;5012930;28;20076;-89
2022/01/25 02:50:44;;;;;;;8.30;6.18;;;2.80;99.90;;;;;;5014188;28;20056;-89
2022/01/25 02:53:11;;;;;;;5.38;4.85;;;2.80;99.90;;;;;;5013003;28;20145;-89
2022/01/25 02:55:39;;;;;;;7.30;5.55;;;2.80;99.90;;;;;;5012442;28;20088;-89
2022/01/25 02:58:08;;;;;;;11.63;6.05;;;2.80;99.90;;;;;;5012465;28;20085;-90
2022/01/25 03:00:35;;;;;;;6.47;5.60;;;2.80;99.90;;;;;;5013233;28;20129;-89
2022/01/25 03:03:02;;;;;;;6.43;5.63;;;2.90;99.90;;;;;;5012421;28;20053;-89
2022/01/25 03:05:29;;;;;;;6.25;5.65;;;2.80;99.90;;;;;;5012891;28;20088;-89
2022/01/25 03:07:57;;;;;;;8.52;5.95;;;2.80;99.90;;;;;;5028871;28;20053;-88
2022/01/25 03:10:34;;;;;;;11.40;7.15;;;2.80;99.90;;;;;;5028815;28;20064;-89
2022/01/25 03:13:01;;;;;;;7.93;5.85;;;2.80;99.90;;;;;;5012496;28;20056;-89
2022/01/25 03:16:18;;;;;;;5.70;5.18;;;2.90;99.90;;;;;;5012643;28;20058;-89
2022/01/25 03:21:04;;;;;;;9.07;5.50;;;2.80;99.90;;;;;;5013296;28;20145;-89
2022/01/25 03:23:32;;;;;;;7.00;5.00;;;2.80;99.90;;;;;;5012565;28;20073;-88
2022/01/25 03:25:59;;;;;;;6.40;5.32;;;2.90;99.90;;;;;;5012304;28;20052;-89
2022/01/25 03:28:25;;;;;;;6.57;5.90;;;2.90;99.90;;;;;;5012655;28;20145;-88
2022/01/25 03:30:52;;;;;;;7.68;6.28;;;2.80;99.90;;;;;;5012361;28;20085;-88
2022/01/25 03:33:21;;;;;;;5.40;4.90;;;2.90;99.90;;;;;;5011991;28;20049;-88
2022/01/25 03:35:48;;;;;;;8.10;5.68;;;2.90;99.90;;;;;;5013110;28;20394;-88
2022/01/25 03:38:16;;;;;;;10.20;6.25;;;2.90;99.90;;;;;;5012068;28;20050;-89
2022/01/25 03:40:44;;;;;;;8.13;6.80;;;3.00;99.90;;;;;;5011966;28;20176;-89
2022/01/25 03:43:14;;;;;;;8.00;7.20;;;3.00;99.90;;;;;;5011033;28;20565;-89
2022/01/25 03:45:45;;;;;;;11.00;7.50;;;3.00;99.90;;;;;;5012104;28;20134;-89
2022/01/25 03:50:41;;;;;;;15.95;8.35;;;2.90;99.90;;;;;;5012872;28;20144;-88
2022/01/25 03:53:09;;;;;;;11.43;7.13;;;2.80;99.90;;;;;;5011933;28;20054;-88
2022/01/25 03:55:37;;;;;;;11.65;7.50;;;2.80;99.90;;;;;;5012062;28;20056;-89
2022/01/25 03:58:04;;;;;;;8.68;7.10;;;2.80;99.90;;;;;;5011858;28;20045;-88
2022/01/25 04:00:32;;;;;;;7.80;6.68;;;2.80;99.90;;;;;;5011901;28;20470;-89
2022/01/25 04:03:05;;;;;;;8.85;7.22;;;2.90;99.90;;;;;;5011988;28;20447;-89
2022/01/25 04:05:38;;;;;;;8.38;6.88;;;2.90;99.90;;;;;;5011641;28;20054;-88
2022/01/25 04:08:05;;;;;;;9.60;7.00;;;2.90;99.90;;;;;;5012084;28;20501;-89
2022/01/25 04:10:32;;;;;;;15.88;8.18;;;3.00;99.90;;;;;;5013352;28;20045;-89
2022/01/25 04:12:59;;;;;;;13.57;6.95;;;3.00;99.90;;;;;;5013465;28;20053;-89
2022/01/25 04:15:26;;;;;;;8.98;6.22;;;3.00;99.90;;;;;;5015624;28;20085;-89
2022/01/25 04:18:13;;;;;;;7.00;5.80;;;2.90;99.90;;;;;;5032061;28;20042;-89
2022/01/25 04:20:41;;;;;;;13.18;7.50;;;2.80;99.90;;;;;;5016535;28;20509;-89
2022/01/25 04:25:53;;;;;;;7.28;6.10;;;2.80;99.90;;;;;;5016302;28;20141;-89
2022/01/25 04:28:20;;;;;;;8.98;7.22;;;2.80;99.90;;;;;;5015050;28;20418;-88
2022/01/25 04:30:47;;;;;;;8.85;7.18;;;2.80;99.90;;;;;;5015433;28;20052;-89
2022/01/25 04:33:24;;;;;;;11.30;7.80;;;2.80;99.90;;;;;;5015153;28;20081;-89
2022/01/25 04:36:12;;;;;;;8.82;7.00;;;2.70;99.90;;;;;;5014977;28;20046;-89
2022/01/25 04:49:45;;;;;;;9.13;8.10;;;2.60;99.90;;;;;;5016198;28;20050;-89
2022/01/25 04:52:17;;;;;;;9.05;7.13;;;2.70;99.90;;;;;;5015017;28;20490;-89
2022/01/25 04:57:24;;;;;;;13.30;8.48;;;2.60;99.90;;;;;;5016119;28;20136;-89
2022/01/25 05:00:03;;;;;;;12.70;8.88;;;2.60;99.90;;;;;;5014751;28;20133;-89
2022/01/25 05:02:52;;;;;;;12.63;8.25;;;2.70;99.90;;;;;;5015691;28;20054;-89
2022/01/25 05:05:33;;;;;;;10.95;7.75;;;2.60;99.90;;;;;;5014485;28;20071;-88
2022/01/25 05:10:29;;;;;;;12.07;8.13;;;2.50;99.90;;;;;;5015979;28;20137;-88
2022/01/25 05:16:16;;;;;;;11.07;7.63;;;2.50;99.90;;;;;;4962494;28;20090;-88
2022/01/25 05:18:49;;;;;;;13.35;9.27;;;2.60;99.90;;;;;;5015565;28;20134;-89
2022/01/25 05:24:01;;;;;;;10.80;7.07;;;2.70;99.90;;;;;;5014110;28;20054;-89
2022/01/25 05:26:28;;;;;;;12.02;6.22;;;2.70;99.90;;;;;;5030330;28;20414;-88
2022/01/25 05:28:58;;;;;;;6.45;5.47;;;2.60;99.90;;;;;;5029910;28;20141;-89
2022/01/25 05:31:25;;;;;;;6.35;5.65;;;2.70;99.90;;;;;;5014310;28;20050;-89
2022/01/25 05:33:52;;;;;;;7.63;5.80;;;2.70;99.90;;;;;;5014923;28;20108;-89
2022/01/25 05:36:23;;;;;;;6.88;4.80;;;2.70;99.90;;;;;;5013495;28;20054;-89
2022/01/25 05:38:50;;;;;;;9.27;4.72;;;2.70;99.90;;;;;;5014720;28;20478;-89
2022/01/25 05:41:17;;;;;;;7.32;5.18;;;2.70;99.90;;;;;;5014290;28;20050;-89
2022/01/25 05:46:30;;;;;;;5.90;4.63;;;2.50;99.90;;;;;;5015208;28;20069;-89
2022/01/25 05:48:57;;;;;;;5.25;4.70;;;2.50;99.90;;;;;;5013894;28;20042;-89
2022/01/25 05:51:24;;;;;;;10.15;5.40;;;2.60;99.90;;;;;;5030296;28;20103;-89
2022/01/25 05:53:51;;;;;;;7.35;5.72;;;2.60;99.90;;;;;;5014833;28;20045;-89
2022/01/25 05:56:18;;;;;;;5.60;4.93;;;2.70;99.90;;;;;;5014771;28;20050;-88
2022/01/25 05:58:44;;;;;;;8.85;5.30;;;2.70;99.90;;;;;;5013608;28;20056;-88
2022/01/25 06:01:11;;;;;;;8.88;5.43;;;2.70;99.90;;;;;;5029699;28;20060;-88
2022/01/25 06:03:41;;;;;;;9.30;5.72;;;2.70;99.90;;;;;;5029559;28;20391;-89
2022/01/25 06:06:08;;;;;;;9.32;7.75;;;2.70;99.90;;;;;;5013626;28;20137;-89
2022/01/25 06:08:35;;;;;;;16.38;11.95;;;2.70;99.90;;;;;;5013450;28;20068;-89
2022/01/25 06:11:02;;;;;;;10.68;9.57;;;2.70;99.90;;;;;;5013575;28;20133;-89
2022/01/25 06:13:29;;;;;;;11.40;9.57;;;2.70;99.90;;;;;;5013345;28;20141;-89
2022/01/25 06:15:56;;;;;;;15.40;9.13;;;2.70;99.90;;;;;;5013027;28;20050;-88
2022/01/25 06:18:23;;;;;;;6.07;5.40;;;2.70;99.90;;;;;;5013233;28;20505;-88
2022/01/25 06:20:50;;;;;;;5.95;4.63;;;2.80;99.90;;;;;;5013038;28;20141;-89
2022/01/25 06:23:17;;;;;;;6.75;4.22;;;2.80;99.90;;;;;;5014379;28;20406;-89
2022/01/25 06:25:44;;;;;;;6.85;3.78;;;2.70;99.90;;;;;;5012753;28;20042;-89
2022/01/25 06:28:10;;;;;;;5.63;4.40;;;2.80;99.90;;;;;;5014024;28;20054;-90
2022/01/25 06:30:37;;;;;;;9.98;4.25;;;2.80;99.90;;;;;;5012876;28;20587;-89
2022/01/25 06:33:08;;;;;;;4.97;4.07;;;2.70;99.90;;;;;;5013125;28;20058;-88
2022/01/25 06:35:35;;;;;;;16.45;4.97;;;2.70;99.90;;;;;;5012711;28;20058;-89
2022/01/25 06:38:02;;;;;;;8.68;4.90;;;2.70;99.90;;;;;;5012863;28;20077;-88
2022/01/25 06:40:29;;;;;;;7.30;4.85;;;2.60;99.90;;;;;;5012749;28;20092;-88
2022/01/25 06:42:56;;;;;;;10.90;8.40;;;2.50;99.90;;;;;;5012592;28;20132;-88
2022/01/25 06:45:24;;;;;;;7.40;5.65;;;2.50;99.90;;;;;;5012671;28;20531;-89
2022/01/25 06:47:51;;;;;;;5.88;5.35;;;2.60;99.90;;;;;;5012923;28;20145;-89
2022/01/25 06:50:20;;;;;;;7.63;6.10;;;2.60;99.90;;;;;;5013749;28;20054;-89
2022/01/25 06:52:47;;;;;;;6.10;5.30;;;2.60;99.90;;;;;;5012741;28;20050;-88
2022/01/25 06:55:34;;;;;;;5.20;4.70;;;2.60;99.90;;;;;;5012252;28;20145;-88
2022/01/25 06:58:01;;;;;;;8.70;5.72;;;2.60;99.90;;;;;;5012376;28;20505;-88
2022/01/25 07:00:27;;;;;;;5.30;4.72;;;2.60;99.90;;;;;;5012815;28;20080;-89
2022/01/25 07:02:54;;;;;;;5.78;4.22;;;2.60;99.90;;;;;;5013447;28;20411;-89
2022/01/25 07:05:24;;;;;;;5.47;3.85;;;2.60;99.90;;;;;;5012570;28;20164;-89
2022/01/25 07:07:52;;;;;;;6.13;3.90;;;2.60;99.90;;;;;;5012260;28;20425;-88
2022/01/25 07:10:19;;;;;;;8.68;4.57;;;2.60;99.90;;;;;;5012399;28;20056;-89
2022/01/25 07:12:46;;;;;;;5.65;3.65;;;2.60;99.90;;;;;;5012584;28;20128;-89
2022/01/25 07:15:13;;;;;;;5.72;3.55;;;2.60;99.90;;;;;;5012098;28;20053;-89
2022/01/25 07:17:41;;;;;;;8.20;3.58;;;2.60;99.90;;;;;;5012481;28;20433;-89
2022/01/25 07:20:10;;;;;;;3.60;3.30;;;2.50;99.90;;;;;;5012182;28;20050;-88
2022/01/25 07:22:37;;;;;;;4.18;3.67;;;2.40;99.90;;;;;;5011958;28;20129;-89
2022/01/25 07:25:07;;;;;;;4.88;3.13;;;2.50;99.90;;;;;;5012107;28;20053;-89
2022/01/25 07:27:34;;;;;;;5.15;3.72;;;2.60;99.90;;;;;;5013276;28;20133;-89
2022/01/25 07:30:01;;;;;;;4.80;4.40;;;2.60;99.90;;;;;;5012207;28;20079;-88
2022/01/25 07:32:28;;;;;;;5.15;4.03;;;2.60;99.90;;;;;;5013383;28;20462;-88
2022/01/25 07:35:03;;;;;;;4.63;4.22;;;2.50;99.90;;;;;;5012121;28;20049;-89
2022/01/25 07:37:31;;;;;;;6.70;4.57;;;2.60;99.90;;;;;;5013412;28;20108;-89
2022/01/25 07:40:01;;;;;;;5.00;4.50;;;2.60;99.90;;;;;;5012356;28;20094;-89
2022/01/25 07:42:36;;;;;;;9.23;4.20;;;2.60;99.90;;;;;;5012046;28;20061;-88
2022/01/25 07:45:19;;;;;;;10.68;4.57;;;2.70;99.90;;;;;;5012017;28;20080;-88
2022/01/25 07:47:48;;;;;;;4.28;3.97;;;2.70;99.90;;;;;;5028337;28;20099;-89
2022/01/25 07:50:16;;;;;;;4.82;4.30;;;2.60;99.90;;;;;;5015809;28;20080;-89
2022/01/25 07:52:43;;;;;;;6.00;4.75;;;2.70;99.90;;;;;;5015737;28;20052;-89
2022/01/25 07:55:10;;;;;;;5.78;4.25;;;2.70;99.90;;;;;;5015732;28;20046;-88
2022/01/25 07:57:37;;;;;;;5.15;4.60;;;2.70;99.90;;;;;;5016856;28;20053;-88
2022/01/25 08:00:05;;;;;;;6.07;4.82;;;2.70;99.90;;;;;;5015520;28;20129;-88
2022/01/25 08:02:32;;;;;;;11.60;4.70;;;2.60;99.90;;;;;;5015717;28;20053;-88
2022/01/25 08:05:19;;;;;;;6.65;4.57;;;2.60;99.90;;;;;;5014664;28;20046;-89
2022/01/25 08:08:01;;;;;;;12.40;5.15;;;2.70;99.90;;;;;;4961317;28;20118;-88
2022/01/25 08:10:45;;;;;;;5.25;4.75;;;2.70;99.90;;;;;;4961515;28;20051;-88
2022/01/25 08:13:35;;;;;;;5.20;4.70;;;2.70;99.90;;;;;;4960402;28;20058;-89
2022/01/25 08:16:11;;;;;;;8.48;5.78;;;2.60;99.90;;;;;;4960223;28;20074;-89
2022/01/25 08:18:48;;;;;;;5.70;4.85;;;2.50;99.90;;;;;;4960369;28;20085;-88
2022/01/25 08:21:42;;;;;;;6.55;5.15;;;2.70;99.90;;;;;;4964743;28;20050;-89
2022/01/25 08:24:29;;;;;;;9.88;6.50;;;2.80;99.90;;;;;;4974105;28;20055;-89
2022/01/25 08:27:20;;;;;;;6.35;5.57;;;2.60;99.90;;;;;;4945746;28;20095;-89
2022/01/25 08:29:54;;;;;;;9.82;5.95;;;2.50;99.90;;;;;;4975502;28;20050;-89
2022/01/25 08:32:41;;;;;;;6.93;5.03;;;2.40;99.90;;;;;;4925578;28;20046;-88
2022/01/25 08:35:31;;;;;;;8.77;4.72;;;2.60;99.90;;;;;;4898868;29;20052;-89
2022/01/25 08:38:20;;;;;;;5.88;4.45;;;2.80;99.90;;;;;;4908965;29;20051;-89
2022/01/25 08:40:49;;;;;;;5.75;4.82;;;2.90;99.90;;;;;;4955222;29;20059;-89
2022/01/25 08:43:22;;;;;;;;;;;3.00;99.90;;;;;;4956451;29;20067;-89
2022/01/25 08:45:57;;;;;;;5.18;4.68;;;3.10;99.90;;;;;;4955523;29;19922;-89
2022/01/25 08:48:27;;;;;;;7.38;4.80;;;3.10;99.90;;;;;;4955850;29;20047;-90
2022/01/25 08:50:58;;;;;;;10.43;6.80;;;3.20;99.90;;;;;;4955582;29;20055;-89
2022/01/25 08:53:42;;;;;;;5.78;5.03;;;3.20;99.90;;;;;;4898418;29;20061;-88
2022/01/25 08:56:15;;;;;;;5.15;4.32;;;3.20;99.90;;;;;;4883625;29;20093;-88
2022/01/25 08:59:11;;;;;;;7.00;5.53;;;3.30;99.90;;;;;;4885814;29;20133;-88
2022/01/25 09:01:38;;;;;;;7.57;6.50;;;3.30;99.90;;;;;;4883161;29;20139;-87
2022/01/25 09:04:05;;;;;;;43.13;25.70;;;3.10;99.90;;;;;;4882856;29;20147;-89
2022/01/25 09:06:33;;;;;;;10.77;8.43;;;3.00;99.90;;;;;;4882686;29;20052;-89
2022/01/25 09:09:05;;;;;;;6.20;5.22;;;2.80;99.90;;;;;;4882565;29;20140;-89
2022/01/25 09:11:32;;;;;;;6.63;5.88;;;2.90;99.90;;;;;;4898345;29;20051;-89
2022/01/25 09:13:59;;;;;;;5.50;4.55;;;3.00;99.90;;;;;;4939363;29;20127;-89
2022/01/25 09:16:26;;;;;;;6.40;4.88;;;3.00;99.90;;;;;;4939382;29;20077;-89
2022/01/25 09:18:53;;;;;;;6.63;5.30;;;3.10;99.90;;;;;;4997438;28;20070;-88
2022/01/25 09:21:20;;;;;;;13.70;6.40;;;3.00;99.90;;;;;;5014353;28;20067;-87
2022/01/25 09:23:47;;;;;;;8.95;5.70;;;3.00;99.90;;;;;;5013575;28;20053;-87
2022/01/25 09:26:13;;;;;;;9.43;5.10;;;3.00;99.90;;;;;;5013642;28;20196;-87
2022/01/25 09:28:40;;;;;;;10.15;5.60;;;3.10;99.90;;;;;;5012663;28;20054;-86
2022/01/25 09:31:07;;;;;;;14.75;6.15;;;3.10;99.90;;;;;;5012945;28;20085;-87
2022/01/25 09:33:34;;;;;;;10.57;6.15;;;3.20;99.90;;;;;;5013440;28;20494;-87
2022/01/25 09:36:01;;;;;;;14.18;6.05;;;3.20;99.90;;;;;;5014733;28;20056;-91
2022/01/25 09:38:29;;;;;;;7.47;6.38;;;3.20;99.90;;;;;;5014710;28;20483;-88
2022/01/25 09:40:56;;;;;;;11.15;6.70;;;3.10;99.90;;;;;;5013572;28;20054;-89
2022/01/25 09:43:24;;;;;;;41.47;27.33;;;3.00;99.90;;;;;;5013741;28;20137;-90
2022/01/25 09:45:51;;;;;;;27.25;14.75;;;3.00;99.90;;;;;;5014163;28;20057;-89
2022/01/25 09:48:18;;;;;;;22.05;8.07;;;2.90;99.90;;;;;;5013609;28;20108;-88
2022/01/25 09:50:45;;;;;;;10.38;6.50;;;3.00;99.90;;;;;;5013469;28;20141;-88
2022/01/25 09:53:12;;;;;;;8.50;7.50;;;2.90;99.90;;;;;;5013509;28;20129;-87
2022/01/25 09:55:41;;;;;;;8.32;7.53;;;2.80;99.90;;;;;;5013513;28;20056;-89
2022/01/25 09:58:10;;;;;;;8.48;6.40;;;2.70;99.90;;;;;;5013738;28;20045;-89
2022/01/25 10:00:37;;;;;;;9.95;6.78;;;2.80;99.90;;;;;;5013523;28;20046;-87
2022/01/25 10:03:16;;;;;;;37.72;18.65;;;3.00;99.90;;;;;;5013241;28;20107;-88
2022/01/25 10:05:45;;;;;;;22.83;12.57;;;2.90;99.90;;;;;;5013289;28;20049;-89
2022/01/25 10:08:25;;;;;;;15.35;9.05;;;2.90;99.90;;;;;;5013356;28;20104;-88
2022/01/25 10:10:57;;;;;;;12.68;11.32;;;2.80;99.90;;;;;;5013065;28;20054;-88
2022/01/25 10:13:27;;;;;;;8.13;6.15;;;2.80;99.90;;;;;;5014782;28;20149;-88
2022/01/25 10:16:01;;;;;;;8.45;6.53;;;2.80;99.90;;;;;;5029477;28;20068;-88
2022/01/25 10:18:51;;;;;;;10.52;6.90;;;2.80;99.90;;;;;;5014308;28;20052;-88
2022/01/25 10:21:34;;;;;;;9.18;6.60;;;2.90;99.90;;;;;;5014511;28;20053;-88
2022/01/25 10:24:10;;;;;;;15.13;6.57;;;2.90;99.90;;;;;;5010314;28;20411;-88
2022/01/25 10:26:48;;;;;;;6.50;5.30;;;3.00;99.90;;;;;;5013287;28;20053;-88
2022/01/25 10:29:27;;;;;;;8.43;5.82;;;3.00;99.90;;;;;;5013660;28;20405;-88
2022/01/25 10:32:22;;;;;;;5.03;4.53;;;2.90;99.90;;;;;;5013047;28;20050;-89
2022/01/25 10:34:50;;;;;;;14.35;9.00;;;2.90;99.90;;;;;;5012071;28;20061;-88
2022/01/25 10:37:19;;;;;;;12.95;7.30;;;2.90;99.90;;;;;;5014265;28;20053;-89
2022/01/25 10:39:48;;;;;;;6.80;6.10;;;2.90;99.90;;;;;;5013781;28;20053;-88
2022/01/25 10:42:24;;;;;;;5.80;5.22;;;2.80;99.90;;;;;;5013078;28;20046;-89
2022/01/25 10:45:02;;;;;;;7.15;5.30;;;2.90;99.90;;;;;;5012767;28;20054;-88
2022/01/25 10:47:49;;;;;;;11.68;6.00;;;2.90;99.90;;;;;;5013081;28;20049;-88
2022/01/25 10:50:35;;;;;;;6.65;5.03;;;2.80;99.90;;;;;;5013029;28;20107;-89
2022/01/25 10:53:16;;;;;;;4.60;4.18;;;3.10;99.90;;;;;;5012848;28;20057;-88
2022/01/25 10:55:45;;;;;;;6.07;4.07;;;3.20;99.90;;;;;;5012488;28;20077;-88
2022/01/25 10:58:13;;;;;;;5.88;4.55;;;3.30;99.90;;;;;;5012909;28;20093;-88
2022/01/25 11:00:42;;;;;;;4.80;4.25;;;3.30;99.90;;;;;;5012911;28;20417;-88
2022/01/25 11:03:09;;;;;;;4.80;4.10;;;3.40;99.90;;;;;;5014010;28;20049;-88
2022/01/25 11:05:45;;;;;;;8.52;4.85;;;3.50;99.90;;;;;;5012725;28;20053;-88
2022/01/25 11:08:18;;;;;;;4.93;4.32;;;3.50;99.90;;;;;;5013750;28;20145;-87
2022/01/25 11:11:00;;;;;;;5.40;4.88;;;3.70;99.90;;;;;;5012456;28;20085;-88
2022/01/25 11:13:35;;;;;;;5.88;5.03;;;3.70;99.90;;;;;;5013982;28;20045;-88
2022/01/25 11:16:09;;;;;;;4.63;4.10;;;3.70;99.90;;;;;;5013388;28;20054;-89
2022/01/25 11:18:37;;;;;;;6.32;4.63;;;3.70;99.90;;;;;;5012598;28;20080;-88
2022/01/25 11:21:06;;;;;;;4.82;4.38;;;3.70;99.90;;;;;;5012084;28;20050;-88
2022/01/25 11:23:36;;;;;;;5.70;4.38;;;3.70;99.90;;;;;;5014981;28;20054;-88
2022/01/25 11:26:05;;;;;;;5.22;4.72;;;3.70;99.90;;;;;;5017699;28;20089;-88
2022/01/25 11:28:36;;;;;;;5.65;4.63;;;3.70;99.90;;;;;;5016581;28;20388;-88
2022/01/25 11:31:11;;;;;;;7.93;5.18;;;3.70;99.90;;;;;;5017532;28;20053;-88
2022/01/25 11:33:45;;;;;;;7.95;4.20;;;3.80;99.90;;;;;;5016535;28;20049;-88
2022/01/25 11:36:13;;;;;;;8.20;4.78;;;3.80;99.90;;;;;;5016453;28;20050;-89
2022/01/25 11:38:47;;;;;;;11.77;4.78;;;3.90;99.90;;;;;;5032814;28;20042;-88
2022/01/25 11:41:17;;;;;;;6.03;4.53;;;4.00;99.90;;;;;;5016232;28;20056;-89
2022/01/25 11:44:04;;;;;;;6.35;4.22;;;3.90;99.90;;;;;;5017462;28;20374;-89
2022/01/25 11:46:31;;;;;;;5.15;4.07;;;4.00;99.90;;;;;;5016397;28;20049;-89
2022/01/25 11:49:04;;;;;;;4.90;3.92;;;3.90;99.90;;;;;;5017332;28;20109;-89
2022/01/25 11:51:30;;;;;;;4.27;3.50;;;3.90;99.90;;;;;;5017453;28;20049;-89
2022/01/25 11:54:02;;;;;;;4.75;4.10;;;3.90;99.90;;;;;;5016219;28;20060;-89
2022/01/25 11:56:29;;;;;;;7.43;4.43;;;3.90;99.90;;;;;;5016483;28;20457;-89
2022/01/25 11:58:59;;;;;;;5.88;3.80;;;3.90;99.90;;;;;;5017350;28;20046;-88
2022/01/25 12:01:27;;;;;;;4.40;4.00;;;3.90;99.90;;;;;;5016134;28;20046;-89
2022/01/25 12:03:58;;;;;;;4.45;4.05;;;3.80;99.90;;;;;;5015786;28;20064;-89
2022/01/25 12:06:34;;;;;;;7.88;4.80;;;3.80;99.90;;;;;;5019717;28;20129;-89
2022/01/25 12:11:50;;;;;;;7.10;4.78;;;3.90;99.90;;;;;;5016888;28;20053;-88
2022/01/25 12:14:27;;;;;;;6.68;4.38;;;4.00;99.90;;;;;;5015849;28;20050;-88
2022/01/25 12:16:57;;;;;;;6.32;4.10;;;4.00;99.90;;;;;;5015674;28;20073;-88
2022/01/25 12:19:30;;;;;;;4.00;3.70;;;3.90;99.90;;;;;;5016638;28;20140;-89
2022/01/25 12:22:04;;;;;;;5.25;3.85;;;3.80;99.90;;;;;;5015492;28;20117;-88
2022/01/25 12:24:51;;;;;;;4.47;3.75;;;3.90;99.90;;;;;;5031533;28;20422;-88
2022/01/25 12:27:25;;;;;;;6.93;4.10;;;3.90;99.90;;;;;;5015617;28;20137;-88
2022/01/25 12:30:12;;;;;;;4.68;4.05;;;3.90;99.90;;;;;;5015449;28;20089;-88
2022/01/25 12:33:08;;;;;;;4.20;3.90;;;3.70;99.90;;;;;;5015445;28;20486;-88
2022/01/25 12:35:42;;;;;;;6.00;3.70;;;3.70;99.90;;;;;;5015311;28;20074;-88
2022/01/25 12:38:12;;;;;;;9.13;4.20;;;3.80;99.90;;;;;;5016128;28;20148;-88
2022/01/25 12:40:49;;;;;;;4.57;3.63;;;3.90;99.90;;;;;;5015214;28;20046;-88
2022/01/25 12:43:33;;;;;;;7.32;3.95;;;4.10;99.90;;;;;;5015110;28;20086;-88
2022/01/25 12:46:07;;;;;;;4.70;4.20;;;4.10;99.90;;;;;;5015029;28;20053;-88
2022/01/25 12:48:36;;;;;;;11.52;4.68;;;4.10;99.90;;;;;;5015115;28;20092;-88
2022/01/25 12:51:09;;;;;;;4.78;4.03;;;4.10;99.90;;;;;;5015164;28;20060;-88
2022/01/25 12:53:39;;;;;;;6.72;4.47;;;4.10;99.90;;;;;;5015893;28;20483;-88
2022/01/25 12:56:10;;;;;;;13.18;4.88;;;4.10;99.90;;;;;;5015937;28;20050;-88
2022/01/25 12:58:38;;;;;;;5.78;4.53;;;4.10;99.90;;;;;;5015065;28;20082;-87
2022/01/25 13:01:10;;;;;;;5.07;4.57;;;4.10;99.90;;;;;;5015054;28;20413;-88
2022/01/25 13:03:45;;;;;;;7.47;4.43;;;4.10;99.90;;;;;;5015801;28;20533;-84
2022/01/25 13:06:15;;;;;;;8.38;5.50;;;4.10;99.90;;;;;;5015964;28;20402;-88
2022/01/25 13:09:04;;;;;;;6.43;4.90;;;3.70;99.90;;;;;;5014654;28;20068;-87
2022/01/25 13:14:33;;;;;;;6.95;5.13;;;3.50;99.90;;;;;;5015997;28;20084;-88
2022/01/25 13:17:01;;;;;;;11.20;5.57;;;3.50;99.90;;;;;;5015556;28;20100;-88
2022/01/25 13:19:40;;;;;;;6.78;4.78;;;3.40;99.90;;;;;;5015415;28;20088;-88
2022/01/25 13:22:14;;;;;;;5.38;4.63;;;3.60;99.90;;;;;;5014510;28;20141;-89
2022/01/25 13:24:57;;;;;;;7.00;4.63;;;3.70;99.90;;;;;;5015100;28;20078;-89
2022/01/25 13:27:29;;;;;;;12.68;5.22;;;3.70;99.90;;;;;;5014467;28;20085;-89
2022/01/25 13:32:46;;;;;;;8.23;4.82;;;3.80;99.90;;;;;;5015185;28;20045;-88
2022/01/25 13:35:29;;;;;;;6.45;4.93;;;3.90;99.90;;;;;;5014242;28;20219;-88
2022/01/25 13:38:12;;;;;;;7.45;5.13;;;3.90;99.90;;;;;;5014045;28;20085;-88
2022/01/25 13:46:33;;;;;;;7.82;6.05;;;3.20;99.90;;;;;;5013884;28;20494;-88
2022/01/25 13:49:11;;;;;;;6.68;5.45;;;3.00;99.90;;;;;;5014288;28;20046;-88
2022/01/25 13:51:58;;;;;;;6.80;5.37;;;3.00;99.90;;;;;;5014016;28;20049;-88
2022/01/25 13:54:27;;;;;;;8.23;5.35;;;3.10;99.90;;;;;;5013817;28;20060;-88
2022/01/25 13:56:55;;;;;;;6.15;4.45;;;3.20;99.90;;;;;;5013851;28;20049;-88
2022/01/25 13:59:25;;;;;;;6.90;5.22;;;3.30;99.90;;;;;;5013883;28;20137;-88
2022/01/25 14:01:52;;;;;;;6.63;5.07;;;3.20;99.90;;;;;;5029931;28;20107;-88
2022/01/25 14:04:22;;;;;;;8.45;5.45;;;3.00;99.90;;;;;;5013920;28;20046;-88
2022/01/25 14:06:53;;;;;;;8.13;6.45;;;3.00;99.90;;;;;;5014626;28;20084;-88
2022/01/25 14:09:28;;;;;;;11.00;7.25;;;2.90;99.90;;;;;;5014808;28;20053;-88
2022/01/25 14:23:21;;;;;;;7.38;5.25;;;3.10;99.90;;;;;;5014232;28;20050;-88
2022/01/25 14:25:47;;;;;;;6.82;4.47;;;3.00;99.90;;;;;;5013947;28;20410;-87
2022/01/25 14:28:18;;;;;;;7.00;4.75;;;3.00;99.90;;;;;;5013304;28;20050;-88
2022/01/25 14:30:47;;;;;;;7.25;5.45;;;3.10;99.90;;;;;;5013158;28;20045;-88
2022/01/25 14:33:33;;;;;;;6.53;4.95;;;3.10;99.90;;;;;;5013313;28;20046;-89
2022/01/25 14:36:05;;;;;;;8.98;5.63;;;3.10;99.90;;;;;;5013011;28;20068;-88
2022/01/25 14:38:37;;;;;;;6.15;4.85;;;3.10;99.90;;;;;;5013384;28;20050;-87
2022/01/25 14:41:10;;;;;;;5.55;4.50;;;3.00;99.90;;;;;;5013546;28;20565;-88
2022/01/25 14:43:50;;;;;;;9.65;4.78;;;3.10;99.90;;;;;;5014091;28;20045;-88
2022/01/25 14:46:27;;;;;;;8.23;5.15;;;3.10;99.90;;;;;;5013054;28;20130;-88
2022/01/25 14:49:11;;;;;;;8.75;5.72;;;3.10;99.90;;;;;;5013261;28;20128;-88
2022/01/25 14:51:47;;;;;;;9.82;5.95;;;3.20;99.90;;;;;;5013369;28;20442;-88
2022/01/25 14:54:25;;;;;;;10.30;5.78;;;3.20;99.90;;;;;;5013322;28;20413;-88
2022/01/25 14:56:56;;;;;;;10.18;6.15;;;3.20;99.90;;;;;;5029129;28;20430;-87
2022/01/25 14:59:28;;;;;;;12.00;7.68;;;3.10;99.90;;;;;;5013431;28;20164;-88
2022/01/25 15:02:02;;;;;;;8.95;6.07;;;3.10;99.90;;;;;;5013064;28;20056;-88
2022/01/25 15:04:37;;;;;;;9.75;6.13;;;3.10;99.90;;;;;;5012901;28;20062;-89
2022/01/25 15:07:06;;;;;;;9.98;6.10;;;3.10;99.90;;;;;;5012852;28;20049;-89
2022/01/25 15:09:33;;;;;;;10.25;5.85;;;3.20;99.90;;;;;;5012685;28;20145;-88
2022/01/25 15:12:00;;;;;;;7.05;5.95;;;3.10;99.90;;;;;;5012419;28;20042;-89
2022/01/25 15:14:36;;;;;;;8.82;5.70;;;3.20;99.90;;;;;;5012553;28;20118;-88
2022/01/25 15:17:03;;;;;;;6.53;5.72;;;3.10;99.90;;;;;;5012729;28;20053;-88